createdAt,value
2018-03-07T00:00:40.184Z,80.90
2018-03-07T00:03:08.418Z,79.70
2018-03-07T00:05:35.846Z,79.70
2018-03-07T00:08:03.292Z,79.70
2018-03-07T00:10:30.867Z,80.40
2018-03-07T00:12:58.298Z,81.00
2018-03-07T00:15:26.485Z,80.90
2018-03-07T00:17:53.951Z,80.90
2018-03-07T00:20:21.418Z,80.40
2018-03-07T00:22:48.863Z,80.00
2018-03-07T00:25:16.302Z,79.80
2018-03-07T00:27:44.503Z,79.10
2018-03-07T00:30:11.932Z,79.10
2018-03-07T00:32:40.138Z,79.50
2018-03-07T00:35:07.574Z,79.40
2018-03-07T00:37:35.038Z,79.60
2018-03-07T00:40:02.465Z,80.00
2018-03-07T00:42:30.674Z,79.60
2018-03-07T00:44:58.102Z,79.60
2018-03-07T00:47:26.304Z,80.40
2018-03-07T00:49:53.790Z,80.30
2018-03-07T00:52:21.209Z,80.20
2018-03-07T00:54:48.641Z,79.90
2018-03-07T00:57:16.098Z,80.20
2018-03-07T00:59:43.529Z,80.30
2018-03-07T01:02:10.979Z,80.20
2018-03-07T01:04:38.424Z,80.60
2018-03-07T01:07:05.864Z,81.10
2018-03-07T01:09:34.055Z,82.90
2018-03-07T01:12:01.487Z,82.90
2018-03-07T01:14:28.914Z,83.20
2018-03-07T01:16:56.437Z,84.90
2018-03-07T01:19:23.900Z,85.40
2018-03-07T01:21:51.354Z,85.30
2018-03-07T01:24:18.786Z,85.60
2018-03-07T01:26:46.271Z,86.10
2018-03-07T01:29:13.728Z,87.20
2018-03-07T01:31:41.161Z,87.30
2018-03-07T01:34:08.626Z,87.20
2018-03-07T01:36:36.044Z,88.00
2018-03-07T01:39:04.266Z,87.90
2018-03-07T01:41:31.701Z,87.80
2018-03-07T01:43:59.133Z,88.30
2018-03-07T01:46:27.340Z,88.70
2018-03-07T01:48:54.788Z,88.70
2018-03-07T01:51:22.225Z,89.00
2018-03-07T01:53:50.425Z,89.90
2018-03-07T01:56:17.861Z,89.00
2018-03-07T01:58:46.076Z,89.20
2018-03-07T02:01:13.507Z,89.20
2018-03-07T02:03:41.707Z,89.20
2018-03-07T02:06:09.152Z,89.20
2018-03-07T02:08:36.588Z,89.20
2018-03-07T02:11:04.794Z,89.10
2018-03-07T02:13:32.237Z,89.10
2018-03-07T02:15:59.682Z,89.00
2018-03-07T02:18:27.175Z,89.10
2018-03-07T02:20:54.593Z,88.80
2018-03-07T02:23:22.806Z,88.80
2018-03-07T02:25:50.249Z,88.90
2018-03-07T02:28:17.687Z,89.20
2018-03-07T02:30:45.893Z,89.30
2018-03-07T02:33:13.335Z,89.30
2018-03-07T02:35:40.768Z,89.30
2018-03-07T02:38:08.984Z,88.50
2018-03-07T02:40:36.435Z,88.50
2018-03-07T02:43:03.854Z,88.70
2018-03-07T02:45:32.049Z,89.10
2018-03-07T02:47:59.507Z,89.10
2018-03-07T02:50:27.717Z,89.10
2018-03-07T02:52:55.147Z,89.00
2018-03-07T02:55:22.618Z,89.40
2018-03-07T02:57:50.213Z,89.20
2018-03-07T03:00:17.673Z,89.20
2018-03-07T03:02:45.992Z,90.40
2018-03-07T03:05:13.456Z,90.20
2018-03-07T03:07:40.879Z,90.30
2018-03-07T03:10:08.317Z,90.30
2018-03-07T03:12:35.758Z,90.30
2018-03-07T03:15:03.221Z,90.10
2018-03-07T03:17:30.644Z,90.00
2018-03-07T03:19:58.085Z,90.10
2018-03-07T03:22:26.294Z,90.30
2018-03-07T03:24:53.729Z,90.30
2018-03-07T03:27:21.152Z,90.20
2018-03-07T03:29:49.365Z,91.20
2018-03-07T03:32:16.838Z,90.80
2018-03-07T03:34:44.261Z,90.80
2018-03-07T03:37:12.468Z,91.20
2018-03-07T03:39:39.914Z,91.10
2018-03-07T03:42:07.345Z,91.30
2018-03-07T03:44:35.568Z,91.50
2018-03-07T03:47:02.999Z,91.40
2018-03-07T03:49:30.436Z,91.30
2018-03-07T03:51:58.644Z,91.80
2018-03-07T03:54:26.085Z,91.80
2018-03-07T03:56:53.506Z,92.00
2018-03-07T03:59:20.966Z,92.00
2018-03-07T04:01:48.399Z,92.10
2018-03-07T04:04:15.839Z,92.10
2018-03-07T04:06:43.271Z,91.90
2018-03-07T04:09:10.699Z,92.10
2018-03-07T04:11:38.893Z,92.30
2018-03-07T04:14:07.095Z,92.50
2018-03-07T04:16:34.559Z,92.50
2018-03-07T04:19:01.999Z,92.30
2018-03-07T04:21:29.430Z,92.00
2018-03-07T04:23:57.646Z,91.80
2018-03-07T04:26:25.235Z,91.80
2018-03-07T04:28:52.681Z,91.90
2018-03-07T04:31:20.125Z,91.90
2018-03-07T04:33:47.560Z,91.70
2018-03-07T04:36:16.327Z,91.60
2018-03-07T04:38:44.642Z,91.30
2018-03-07T04:41:12.056Z,91.30
2018-03-07T04:43:40.268Z,91.00
2018-03-07T04:46:07.713Z,91.00
2018-03-07T04:48:35.210Z,90.80
2018-03-07T04:51:02.657Z,90.60
2018-03-07T04:53:30.124Z,90.50
2018-03-07T04:55:57.581Z,90.50
2018-03-07T04:58:25.019Z,90.40
2018-03-07T05:00:52.448Z,90.50
2018-03-07T05:03:20.647Z,90.50
2018-03-07T05:05:48.075Z,90.40
2018-03-07T05:08:15.900Z,90.20
2018-03-07T05:10:43.333Z,90.10
2018-03-07T05:13:10.756Z,90.00
2018-03-07T05:15:38.955Z,89.60
2018-03-07T05:18:06.410Z,89.60
2018-03-07T05:20:33.850Z,89.80
2018-03-07T05:23:02.054Z,89.90
2018-03-07T05:25:29.473Z,89.90
2018-03-07T05:27:57.699Z,89.60
2018-03-07T05:30:25.121Z,89.60
2018-03-07T05:32:52.573Z,89.80
2018-03-07T05:35:20.779Z,89.90
2018-03-07T05:37:48.220Z,89.90
2018-03-07T05:40:16.039Z,89.70
2018-03-07T05:42:43.470Z,90.00
2018-03-07T05:45:10.913Z,90.10
2018-03-07T05:47:38.337Z,90.10
2018-03-07T05:50:06.542Z,90.00
2018-03-07T05:52:33.965Z,90.00
2018-03-07T05:55:02.161Z,89.90
2018-03-07T05:57:29.589Z,89.80
2018-03-07T05:59:57.798Z,90.10
2018-03-07T06:02:25.234Z,90.10
2018-03-07T06:04:53.437Z,90.20
2018-03-07T06:07:20.868Z,90.20
2018-03-07T06:09:49.094Z,90.00
2018-03-07T06:12:16.533Z,90.00
2018-03-07T06:14:44.021Z,89.70
2018-03-07T06:17:11.558Z,89.80
2018-03-07T06:19:38.986Z,89.80
2018-03-07T06:22:07.185Z,90.40
2018-03-07T06:24:34.641Z,90.80
2018-03-07T06:27:02.049Z,90.50
2018-03-07T06:29:29.565Z,90.50
2018-03-07T06:31:57.138Z,91.10
2018-03-07T06:34:24.528Z,90.80
2018-03-07T06:36:52.749Z,90.90
2018-03-07T06:39:20.213Z,90.90
2018-03-07T06:41:47.650Z,91.10
2018-03-07T06:44:16.762Z,91.30
2018-03-07T06:46:44.235Z,91.30
2018-03-07T06:49:11.688Z,90.70
2018-03-07T06:51:39.120Z,90.60
2018-03-07T06:54:06.552Z,90.50
2018-03-07T06:56:34.788Z,90.60
2018-03-07T06:59:02.234Z,90.60
2018-03-07T07:01:29.684Z,90.20
2018-03-07T07:03:57.108Z,90.40
2018-03-07T07:06:24.620Z,90.00
2018-03-07T07:08:52.055Z,89.50
2018-03-07T07:11:19.497Z,88.10
2018-03-07T07:13:46.926Z,87.70
2018-03-07T07:16:16.073Z,85.80
2018-03-07T07:18:43.546Z,85.80
2018-03-07T07:21:10.982Z,85.70
2018-03-07T07:23:38.407Z,86.00
2018-03-07T07:26:06.619Z,84.50
2018-03-07T07:28:34.082Z,84.50
2018-03-07T07:31:01.537Z,84.40
2018-03-07T07:33:28.982Z,84.30
2018-03-07T07:35:56.405Z,83.30
2018-03-07T07:38:24.630Z,82.80
2018-03-07T07:40:52.073Z,82.80
2018-03-07T07:43:19.568Z,82.40
2018-03-07T07:45:46.969Z,82.30
2018-03-07T07:48:16.080Z,82.00
2018-03-07T07:50:43.562Z,81.90
2018-03-07T07:53:11.721Z,77.00
2018-03-07T07:55:39.157Z,77.00
2018-03-07T07:58:06.636Z,75.70
2018-03-07T08:00:34.108Z,75.60
2018-03-07T08:03:01.557Z,75.50
2018-03-07T08:05:29.021Z,75.90
2018-03-07T08:07:57.023Z,75.50
2018-03-07T08:10:24.550Z,76.50
2018-03-07T08:12:51.996Z,75.70
2018-03-07T08:15:19.406Z,77.10
2018-03-07T08:17:47.612Z,75.90
2018-03-07T08:20:15.046Z,75.00
2018-03-07T08:22:43.273Z,73.60
2018-03-07T08:25:10.731Z,73.50
2018-03-07T08:27:38.296Z,71.60
2018-03-07T08:30:05.698Z,68.90
2018-03-07T08:32:33.892Z,62.10
2018-03-07T08:35:01.325Z,62.00
2018-03-07T08:37:29.558Z,59.80
2018-03-07T08:39:56.992Z,59.70
2018-03-07T08:42:24.424Z,59.70
2018-03-07T08:44:52.623Z,58.60
2018-03-07T08:47:20.053Z,58.00
2018-03-07T08:49:48.273Z,56.60
2018-03-07T08:52:17.155Z,56.60
2018-03-07T08:54:44.570Z,56.70
2018-03-07T08:57:12.776Z,54.40
2018-03-07T08:59:40.197Z,54.30
2018-03-07T09:02:07.660Z,52.50
2018-03-07T09:04:35.896Z,51.00
2018-03-07T09:07:03.331Z,48.30
2018-03-07T09:09:30.764Z,45.60
2018-03-07T09:11:58.247Z,44.20
2018-03-07T09:14:25.717Z,42.00
2018-03-07T09:16:53.124Z,39.50
2018-03-07T09:19:21.335Z,37.10
2018-03-07T09:21:48.766Z,37.10
2018-03-07T09:24:16.497Z,37.00
2018-03-07T09:26:43.940Z,37.40
2018-03-07T09:29:11.379Z,36.40
2018-03-07T09:31:38.812Z,36.70
2018-03-07T09:34:06.240Z,37.20
2018-03-07T09:36:34.450Z,38.00
2018-03-07T09:39:01.895Z,37.70
2018-03-07T09:41:30.084Z,42.30
2018-03-07T09:43:57.526Z,42.20
2018-03-07T09:46:25.738Z,44.50
2018-03-07T09:48:53.186Z,44.50
2018-03-07T09:51:20.622Z,43.40
2018-03-07T09:53:48.060Z,42.30
2018-03-07T09:56:17.233Z,42.80
2018-03-07T09:58:44.645Z,42.80
2018-03-07T10:01:12.077Z,41.30
2018-03-07T10:03:40.932Z,40.10
2018-03-07T10:06:08.366Z,40.10
2018-03-07T10:08:35.847Z,40.90
2018-03-07T10:11:03.294Z,40.80
2018-03-07T10:13:30.730Z,39.40
2018-03-07T10:15:58.164Z,39.70
2018-03-07T10:18:25.660Z,41.60
2018-03-07T10:20:53.100Z,43.30
2018-03-07T10:23:20.540Z,44.80
2018-03-07T10:25:47.969Z,45.20
2018-03-07T10:28:15.404Z,44.90
2018-03-07T10:30:42.852Z,44.40
2018-03-07T10:33:16.023Z,43.60
2018-03-07T10:35:43.454Z,46.00
2018-03-07T10:38:11.658Z,48.10
2018-03-07T10:40:39.111Z,48.10
2018-03-07T10:43:06.587Z,50.10
2018-03-07T10:45:34.009Z,51.10
2018-03-07T10:48:01.505Z,51.10
2018-03-07T10:50:28.938Z,51.30
2018-03-07T10:52:56.392Z,51.10
2018-03-07T10:55:23.895Z,52.20
2018-03-07T10:57:51.423Z,49.90
2018-03-07T11:00:24.560Z,49.30
2018-03-07T11:02:51.990Z,49.80
2018-03-07T11:05:19.449Z,48.70
2018-03-07T11:07:46.883Z,50.70
2018-03-07T11:10:14.329Z,53.60
2018-03-07T11:12:41.775Z,53.00
2018-03-07T11:15:09.225Z,50.40
2018-03-07T11:17:37.457Z,44.00
2018-03-07T11:20:04.884Z,44.00
2018-03-07T11:22:33.096Z,46.40
2018-03-07T11:25:00.556Z,46.40
2018-03-07T11:27:28.001Z,48.00
2018-03-07T11:29:55.520Z,47.30
2018-03-07T11:32:22.945Z,46.90
2018-03-07T11:34:51.185Z,47.60
2018-03-07T11:37:18.641Z,47.60
2018-03-07T11:39:46.091Z,48.50
2018-03-07T11:42:13.522Z,49.50
2018-03-07T11:44:40.981Z,51.20
2018-03-07T11:47:09.204Z,53.80
2018-03-07T11:49:36.634Z,53.80
2018-03-07T11:52:04.061Z,54.90
2018-03-07T11:54:32.272Z,53.50
2018-03-07T11:56:59.729Z,53.40
2018-03-07T11:59:27.714Z,54.90
2018-03-07T12:01:55.993Z,56.70
2018-03-07T12:04:23.445Z,56.60
2018-03-07T12:06:50.895Z,57.30
2018-03-07T12:09:18.369Z,57.90
2018-03-07T12:11:45.810Z,61.80
2018-03-07T12:14:13.261Z,62.20
2018-03-07T12:16:40.704Z,62.10
2018-03-07T12:19:08.209Z,62.10
2018-03-07T12:21:35.656Z,62.20
2018-03-07T12:24:03.106Z,60.40
2018-03-07T12:26:30.560Z,59.50
2018-03-07T12:28:58.002Z,59.50
2018-03-07T12:31:25.444Z,59.10
2018-03-07T12:33:53.665Z,59.50
2018-03-07T12:36:22.065Z,59.50
2018-03-07T12:38:49.495Z,61.00
2018-03-07T12:41:16.937Z,62.90
2018-03-07T12:43:44.386Z,62.90
2018-03-07T12:46:11.868Z,62.50
2018-03-07T12:48:39.333Z,62.70
2018-03-07T12:51:06.806Z,64.70
2018-03-07T12:53:34.228Z,66.60
2018-03-07T12:56:01.684Z,68.90
2018-03-07T12:58:29.120Z,70.00
2018-03-07T13:00:56.544Z,71.10
2018-03-07T13:03:24.769Z,72.60
2018-03-07T13:05:52.245Z,71.70
2018-03-07T13:08:19.669Z,72.50
2018-03-07T13:10:47.100Z,70.00
2018-03-07T13:13:15.310Z,67.70
2018-03-07T13:15:42.758Z,67.70
2018-03-07T13:18:10.980Z,69.00
2018-03-07T13:20:38.458Z,68.90
2018-03-07T13:23:05.885Z,70.80
2018-03-07T13:25:33.346Z,73.20
2018-03-07T13:28:00.773Z,74.80
2018-03-07T13:30:28.213Z,73.80
2018-03-07T13:32:55.650Z,74.20
2018-03-07T13:35:23.902Z,74.90
2018-03-07T13:37:51.341Z,74.90
2018-03-07T13:40:18.812Z,75.30
2018-03-07T13:42:46.304Z,76.60
2018-03-07T13:45:14.561Z,77.30
2018-03-07T13:47:42.005Z,77.20
2018-03-07T13:50:09.443Z,77.00
2018-03-07T13:52:36.899Z,76.60
2018-03-07T13:55:04.417Z,75.80
2018-03-07T13:57:32.640Z,73.50
2018-03-07T14:00:00.112Z,73.50
2018-03-07T14:02:27.554Z,74.40
2018-03-07T14:04:55.005Z,74.10
2018-03-07T14:07:22.461Z,74.40
2018-03-07T14:09:49.933Z,76.00
2018-03-07T14:12:17.362Z,74.80
2018-03-07T14:14:44.788Z,72.20
2018-03-07T14:17:13.032Z,69.80
2018-03-07T14:19:40.469Z,69.80
2018-03-07T14:22:07.900Z,69.20
2018-03-07T14:24:35.364Z,68.50
2018-03-07T14:27:03.551Z,70.00
2018-03-07T14:29:30.981Z,70.00
2018-03-07T14:31:59.189Z,69.90
2018-03-07T14:34:26.660Z,69.90
2018-03-07T14:36:54.101Z,70.10
2018-03-07T14:39:21.520Z,69.70
2018-03-07T14:41:49.750Z,71.80
2018-03-07T14:44:17.190Z,71.70
2018-03-07T14:46:44.625Z,70.80
2018-03-07T14:49:12.108Z,70.60
2018-03-07T14:51:39.550Z,71.10
2018-03-07T14:54:06.972Z,72.30
2018-03-07T14:56:34.412Z,71.90
2018-03-07T14:59:01.844Z,73.00
2018-03-07T15:01:29.277Z,72.00
2018-03-07T15:03:56.704Z,71.40
2018-03-07T15:06:24.918Z,70.90
2018-03-07T15:08:52.343Z,70.90
2018-03-07T15:11:20.541Z,73.60
2018-03-07T15:13:47.982Z,73.60
2018-03-07T15:16:16.173Z,73.00
2018-03-07T15:18:43.666Z,73.00
2018-03-07T15:21:11.098Z,73.10
2018-03-07T15:23:38.532Z,72.50
2018-03-07T15:26:06.747Z,74.20
2018-03-07T15:28:34.173Z,74.10
2018-03-07T15:31:01.609Z,73.50
2018-03-07T15:33:29.833Z,75.50
2018-03-07T15:35:57.272Z,74.40
2018-03-07T15:38:24.749Z,74.40
2018-03-07T15:40:52.194Z,75.30
2018-03-07T15:43:19.630Z,76.70
2018-03-07T15:45:47.879Z,76.00
2018-03-07T15:48:15.346Z,76.00
2018-03-07T15:50:42.777Z,76.30
2018-03-07T15:53:10.224Z,76.00
2018-03-07T15:55:37.658Z,76.60
2018-03-07T15:58:05.093Z,76.70
2018-03-07T16:00:33.358Z,77.50
2018-03-07T16:03:01.569Z,77.60
2018-03-07T16:05:29.005Z,77.50
2018-03-07T16:07:56.446Z,78.10
2018-03-07T16:10:24.643Z,76.00
2018-03-07T16:12:52.077Z,75.90
2018-03-07T16:15:20.284Z,76.20
2018-03-07T16:17:47.767Z,76.20
2018-03-07T16:20:15.196Z,75.70
2018-03-07T16:22:42.725Z,75.20
2018-03-07T16:25:11.068Z,73.90
2018-03-07T16:27:38.408Z,73.80
2018-03-07T16:30:05.867Z,74.50
2018-03-07T16:32:33.333Z,75.00
2018-03-07T16:35:00.757Z,74.10
2018-03-07T16:37:28.289Z,74.90
2018-03-07T16:39:55.696Z,75.00
2018-03-07T16:42:23.145Z,75.90
2018-03-07T16:44:50.578Z,77.60
2018-03-07T16:47:18.013Z,77.40
2018-03-07T16:49:45.547Z,77.00
2018-03-07T16:52:12.992Z,76.20
2018-03-07T16:54:40.436Z,76.70
2018-03-07T16:57:07.857Z,77.40
2018-03-07T16:59:36.052Z,77.00
2018-03-07T17:02:03.550Z,77.00
2018-03-07T17:04:30.995Z,77.90
2018-03-07T17:06:58.434Z,77.10
2018-03-07T17:09:25.921Z,76.50
2018-03-07T17:11:53.366Z,75.80
2018-03-07T17:14:20.830Z,75.40
2018-03-07T17:16:48.253Z,76.00
2018-03-07T17:19:15.685Z,75.80
2018-03-07T17:21:43.124Z,76.60
2018-03-07T17:24:10.557Z,76.70
2018-03-07T17:26:37.985Z,78.10
2018-03-07T17:29:05.435Z,77.30
2018-03-07T17:31:33.625Z,76.40
2018-03-07T17:34:01.066Z,76.40
2018-03-07T17:36:28.490Z,76.30
2018-03-07T17:38:56.024Z,76.80
2018-03-07T17:41:23.456Z,77.30
2018-03-07T17:43:50.899Z,76.70
2018-03-07T17:46:19.078Z,78.80
2018-03-07T17:48:46.518Z,78.60
2018-03-07T17:51:14.722Z,78.60
2018-03-07T17:53:42.163Z,78.60
2018-03-07T17:56:09.607Z,78.00
2018-03-07T17:58:37.081Z,77.10
2018-03-07T18:01:05.410Z,78.00
2018-03-07T18:03:32.849Z,77.60
2018-03-07T18:06:00.285Z,78.80
2018-03-07T18:08:27.745Z,80.30
2018-03-07T18:10:55.169Z,78.80
2018-03-07T18:13:23.439Z,78.30
2018-03-07T18:15:50.859Z,78.30
2018-03-07T18:18:18.280Z,77.80
2018-03-07T18:20:45.723Z,77.30
2018-03-07T18:23:13.916Z,76.90
2018-03-07T18:25:41.340Z,76.90
2018-03-07T18:28:09.546Z,79.30
2018-03-07T18:30:36.977Z,78.50
2018-03-07T18:33:05.202Z,78.80
2018-03-07T18:35:32.641Z,78.70
2018-03-07T18:38:00.080Z,78.60
2018-03-07T18:40:28.278Z,78.20
2018-03-07T18:42:55.720Z,78.20
2018-03-07T18:45:23.908Z,79.00
2018-03-07T18:47:51.342Z,79.00
2018-03-07T18:50:19.533Z,79.70
2018-03-07T18:52:46.979Z,79.50
2018-03-07T18:55:15.174Z,79.30
2018-03-07T18:57:42.591Z,79.30
2018-03-07T19:00:10.841Z,78.80
2018-03-07T19:02:38.284Z,78.80
2018-03-07T19:05:06.522Z,79.30
2018-03-07T19:07:33.958Z,80.70
2018-03-07T19:10:01.410Z,81.20
2018-03-07T19:12:28.861Z,82.10
2018-03-07T19:14:56.304Z,81.90
2018-03-07T19:17:23.752Z,81.30
2018-03-07T19:19:51.195Z,81.00
2018-03-07T19:22:18.661Z,81.80
2018-03-07T19:24:46.107Z,82.30
2018-03-07T19:27:13.562Z,84.30
2018-03-07T19:29:41.757Z,86.80
2018-03-07T19:32:09.185Z,86.70
2018-03-07T19:34:36.652Z,88.50
2018-03-07T19:37:04.096Z,88.40
2018-03-07T19:39:31.651Z,88.70
2018-03-07T19:41:59.073Z,89.00
2018-03-07T19:44:26.533Z,88.30
2018-03-07T19:46:54.046Z,89.30
2018-03-07T19:49:21.488Z,88.90
2018-03-07T19:51:48.916Z,88.80
2018-03-07T19:54:18.086Z,87.40
2018-03-07T19:56:45.471Z,87.20
2018-03-07T19:59:13.673Z,89.50
2018-03-07T20:01:41.098Z,89.50
2018-03-07T20:04:09.314Z,89.80
2018-03-07T20:06:36.747Z,89.70
2018-03-07T20:09:04.952Z,89.20
2018-03-07T20:11:32.374Z,89.10
2018-03-07T20:14:00.589Z,89.30
2018-03-07T20:16:28.032Z,89.30
2018-03-07T20:18:55.456Z,88.80
2018-03-07T20:21:23.656Z,89.30
2018-03-07T20:23:51.102Z,89.30
2018-03-07T20:26:19.288Z,90.30
2018-03-07T20:28:54.916Z,90.30
2018-03-07T20:31:23.433Z,90.90
2018-03-07T20:33:50.916Z,90.90
2018-03-07T20:36:18.359Z,91.00
2018-03-07T20:38:45.799Z,90.80
2018-03-07T20:41:13.284Z,91.70
2018-03-07T20:43:40.731Z,92.10
2018-03-07T20:46:08.149Z,92.00
2018-03-07T20:48:36.369Z,91.50
2018-03-07T20:51:03.825Z,91.50
2018-03-07T20:53:31.277Z,91.50
2018-03-07T20:55:58.713Z,91.70
2018-03-07T20:58:26.160Z,91.70
2018-03-07T21:00:54.350Z,92.30
2018-03-07T21:03:21.781Z,92.30
2018-03-07T21:05:50.019Z,92.70
2018-03-07T21:08:18.372Z,92.60
2018-03-07T21:10:45.796Z,92.90
2018-03-07T21:13:14.008Z,93.00
2018-03-07T21:15:41.443Z,92.90
2018-03-07T21:18:09.628Z,92.80
2018-03-07T21:20:37.057Z,92.80
2018-03-07T21:23:05.265Z,93.40
2018-03-07T21:25:32.697Z,93.40
2018-03-07T21:28:00.893Z,93.30
2018-03-07T21:30:28.345Z,93.30
2018-03-07T21:32:55.769Z,93.80
2018-03-07T21:35:23.280Z,93.50
2018-03-07T21:37:50.694Z,94.00
2018-03-07T21:40:19.107Z,94.10
2018-03-07T21:42:46.530Z,94.10
2018-03-07T21:45:14.727Z,94.10
2018-03-07T21:47:42.148Z,94.10
2018-03-07T21:50:09.597Z,94.00
2018-03-07T21:52:37.684Z,94.80
2018-03-07T21:55:05.154Z,94.20
2018-03-07T21:57:33.351Z,93.90
2018-03-07T22:00:00.857Z,93.80
2018-03-07T22:02:28.300Z,93.50
2018-03-07T22:04:55.752Z,94.50
2018-03-07T22:07:23.190Z,94.50
2018-03-07T22:09:50.614Z,94.60
2018-03-07T22:12:19.226Z,95.10
2018-03-07T22:14:46.700Z,95.00
2018-03-07T22:17:14.170Z,95.40
2018-03-07T22:19:41.626Z,95.50
2018-03-07T22:22:09.164Z,95.30
2018-03-07T22:24:36.659Z,95.60
2018-03-07T22:27:04.627Z,95.80
2018-03-07T22:29:32.067Z,95.40
2018-03-07T22:31:59.527Z,95.60
2018-03-07T22:34:26.975Z,96.10
2018-03-07T22:36:54.417Z,96.80
2018-03-07T22:39:21.841Z,96.30
2018-03-07T22:41:49.298Z,95.90
2018-03-07T22:44:16.712Z,96.00
2018-03-07T22:46:44.191Z,96.80
2018-03-07T22:49:11.639Z,97.30
2018-03-07T22:51:39.102Z,97.00
2018-03-07T22:54:06.542Z,96.90
2018-03-07T22:56:33.996Z,96.50
2018-03-07T22:59:01.453Z,96.40
2018-03-07T23:01:28.938Z,96.90
2018-03-07T23:03:56.349Z,96.10
2018-03-07T23:06:23.768Z,97.10
2018-03-07T23:08:51.224Z,97.00
2018-03-07T23:11:18.653Z,97.30
2018-03-07T23:13:46.078Z,96.80
2018-03-07T23:16:13.517Z,96.90
2018-03-07T23:18:41.742Z,96.80
2018-03-07T23:21:09.208Z,96.80
2018-03-07T23:23:36.639Z,96.70
2018-03-07T23:26:04.133Z,97.10
2018-03-07T23:28:31.588Z,96.80
2018-03-07T23:30:59.044Z,97.00
2018-03-07T23:33:27.282Z,96.70
2018-03-07T23:35:54.713Z,96.70
2018-03-07T23:38:22.971Z,97.30
2018-03-07T23:40:50.947Z,97.30
2018-03-07T23:43:18.680Z,97.40
2018-03-07T23:45:46.111Z,97.80
2018-03-07T23:48:14.421Z,97.10
2018-03-07T23:50:41.890Z,97.50
2018-03-07T23:53:09.337Z,97.30
2018-03-07T23:55:36.769Z,97.30
2018-03-07T23:58:04.200Z,96.70
